PWSweather.com
Personal Weather Stations
Station Observations
828767
Clearbrook, ClearbrookGB PL6

ClearbrookClearbrookGB PL6

Lat: 50.458829, Lon: -4.093856

Elevation: 453

Station Type: Davis Vantage Pro 2 Plus

http://www.dartmoorwalker.co.uk/weather

Latest ConditionsUpdated 3:55:00 AM GMT Wednesday, Aug 21, 2019
Currently Today's Max Today's Min Today's Average
Temperature 49.8°F9.9°C 50.3°F10.2°C 49.3°F9.6°C 49.6°F9.8°C
Dew Point -47.6°F-44.2°C -47.3°F-44.1°C -47.9°F-44.4°C -47.7°F-44.3°C
Winds Calm Calm Calm -Calm - - Calm Calm
Wind Gusts -- -- - -
Humidity 1% 1% 1% 1%
Pressure 29.02 in982.7 mb 29.02 in982.7 mb 29.02 in982.7 mb -
Hour Temp Dew Point Humidity Winds Wind Gusts Pressure Precip Precip Rate Daily Precip Total
03:55 AM 49.8°F9.9°C -47.6°F-44.2°C 1% Calm Calm -- 29.02 in982.7 mb 0.00 in0.0 mm 0.00 in0.0 mm 0.00 in0.0 mm
03:50 AM 49.5°F9.7°C -47.8°F-44.3°C 1% Calm Calm -- 29.02 in982.7 mb 0.00 in0.0 mm 0.00 in0.0 mm 0.00 in0.0 mm
03:45 AM 49.3°F9.6°C -47.9°F-44.4°C 1% Calm Calm -- 29.02 in982.7 mb 0.00 in0.0 mm 0.00 in0.0 mm 0.00 in0.0 mm
03:40 AM 49.4°F9.7°C -47.8°F-44.3°C 1% Calm Calm -- 29.02 in982.7 mb 0.00 in0.0 mm 0.00 in0.0 mm 0.00 in0.0 mm
03:35 AM 49.5°F9.7°C -47.8°F-44.3°C 1% Calm Calm -- 29.02 in982.7 mb 0.00 in0.0 mm 0.00 in0.0 mm 0.00 in0.0 mm
03:30 AM 49.5°F9.7°C -47.8°F-44.3°C 1% Calm Calm -- 29.02 in982.7 mb 0.00 in0.0 mm 0.00 in0.0 mm 0.00 in0.0 mm
03:25 AM 49.5°F9.7°C -47.8°F-44.3°C 1% Calm Calm -- 29.02 in982.7 mb 0.00 in0.0 mm 0.00 in0.0 mm 0.00 in0.0 mm
03:20 AM 49.3°F9.6°C -47.9°F-44.4°C 1% Calm Calm -- 29.02 in982.7 mb 0.00 in0.0 mm 0.00 in0.0 mm 0.00 in0.0 mm
03:15 AM 49.4°F9.7°C -47.8°F-44.3°C 1% Calm Calm -- 29.02 in982.7 mb 0.00 in0.0 mm 0.00 in0.0 mm 0.00 in0.0 mm
03:10 AM 49.6°F9.8°C -47.7°F-44.3°C 1% Calm Calm -- 29.02 in982.7 mb 0.00 in0.0 mm 0.00 in0.0 mm 0.00 in0.0 mm
03:05 AM 49.6°F9.8°C -47.7°F-44.3°C 1% Calm Calm -- 29.02 in982.7 mb 0.00 in0.0 mm 0.00 in0.0 mm 0.00 in0.0 mm
03:00 AM 49.6°F9.8°C -47.7°F-44.3°C 1% Calm Calm -- 29.02 in982.7 mb 0.00 in0.0 mm 0.00 in0.0 mm 0.00 in0.0 mm
02:55 AM 49.7°F9.8°C -47.6°F-44.2°C 1% Calm Calm -- 29.02 in982.7 mb 0.00 in0.0 mm 0.00 in0.0 mm 0.00 in0.0 mm
02:50 AM 49.8°F9.9°C -47.6°F-44.2°C 1% Calm Calm -- 29.02 in982.7 mb 0.00 in0.0 mm 0.00 in0.0 mm 0.00 in0.0 mm
02:45 AM 49.6°F9.8°C -47.7°F-44.3°C 1% Calm Calm -- 29.02 in982.7 mb 0.00 in0.0 mm 0.00 in0.0 mm 0.00 in0.0 mm
02:40 AM 49.5°F9.7°C -47.8°F-44.3°C 1% Calm Calm -- 29.02 in982.7 mb 0.00 in0.0 mm 0.00 in0.0 mm 0.00 in0.0 mm
02:35 AM 49.6°F9.8°C -47.7°F-44.3°C 1% Calm Calm -- 29.02 in982.7 mb 0.00 in0.0 mm 0.00 in0.0 mm 0.00 in0.0 mm
02:30 AM 49.7°F9.8°C -47.6°F-44.2°C 1% Calm Calm -- 29.02 in982.7 mb 0.00 in0.0 mm 0.00 in0.0 mm 0.00 in0.0 mm
02:25 AM 49.8°F9.9°C -47.6°F-44.2°C 1% Calm Calm -- 29.02 in982.7 mb 0.00 in0.0 mm 0.00 in0.0 mm 0.00 in0.0 mm
02:20 AM 50.0°F10.0°C -47.5°F-44.2°C 1% Calm Calm -- 29.02 in982.7 mb 0.00 in0.0 mm 0.00 in0.0 mm 0.00 in0.0 mm
02:15 AM 49.9°F9.9°C -47.5°F-44.2°C 1% Calm Calm -- 29.02 in982.7 mb 0.00 in0.0 mm 0.00 in0.0 mm 0.00 in0.0 mm
02:10 AM 50.1°F10.1°C -47.4°F-44.1°C 1% Calm Calm -- 29.02 in982.7 mb 0.00 in0.0 mm 0.00 in0.0 mm 0.00 in0.0 mm
02:05 AM 50.3°F10.2°C -47.3°F-44.1°C 1% Calm Calm -- 29.02 in982.7 mb 0.00 in0.0 mm 0.00 in0.0 mm 0.00 in0.0 mm
02:00 AM 50.3°F10.2°C -47.3°F-44.1°C 1% Calm Calm -- 29.02 in982.7 mb 0.00 in0.0 mm 0.00 in0.0 mm 0.00 in0.0 mm
01:55 AM 49.7°F9.8°C -47.6°F-44.2°C 1% Calm Calm -- 29.02 in982.7 mb 0.00 in0.0 mm 0.00 in0.0 mm 0.00 in0.0 mm
01:50 AM 49.5°F9.7°C -47.8°F-44.3°C 1% Calm Calm -- 29.02 in982.7 mb 0.00 in0.0 mm 0.00 in0.0 mm 0.00 in0.0 mm
01:45 AM 49.4°F9.7°C -47.8°F-44.3°C 1% Calm Calm -- 29.02 in982.7 mb 0.00 in0.0 mm 0.00 in0.0 mm 0.00 in0.0 mm
01:40 AM 49.4°F9.7°C -47.8°F-44.3°C 1% Calm Calm -- 29.02 in982.7 mb 0.00 in0.0 mm 0.00 in0.0 mm 0.00 in0.0 mm
01:35 AM 49.6°F9.8°C -47.7°F-44.3°C 1% Calm Calm -- 29.02 in982.7 mb 0.00 in0.0 mm 0.00 in0.0 mm 0.00 in0.0 mm
01:30 AM 49.7°F9.8°C -47.6°F-44.2°C 1% Calm Calm -- 29.02 in982.7 mb 0.00 in0.0 mm 0.00 in0.0 mm 0.00 in0.0 mm
01:25 AM 49.8°F9.9°C -47.6°F-44.2°C 1% Calm Calm -- 29.02 in982.7 mb 0.00 in0.0 mm 0.00 in0.0 mm 0.00 in0.0 mm
01:20 AM 49.5°F9.7°C -47.8°F-44.3°C 1% Calm Calm -- 29.02 in982.7 mb 0.00 in0.0 mm 0.00 in0.0 mm 0.00 in0.0 mm
01:15 AM 49.3°F9.6°C -47.9°F-44.4°C 1% Calm Calm -- 29.02 in982.7 mb 0.00 in0.0 mm 0.00 in0.0 mm 0.00 in0.0 mm
01:10 AM 49.3°F9.6°C -47.9°F-44.4°C 1% Calm Calm -- 29.02 in982.7 mb 0.00 in0.0 mm 0.00 in0.0 mm 0.00 in0.0 mm
01:05 AM 49.4°F9.7°C -47.8°F-44.3°C 1% Calm Calm -- 29.02 in982.7 mb 0.00 in0.0 mm 0.00 in0.0 mm 0.00 in0.0 mm
01:00 AM 49.3°F9.6°C -47.9°F-44.4°C 1% Calm Calm -- 29.02 in982.7 mb 0.00 in0.0 mm 0.00 in0.0 mm 0.00 in0.0 mm
12:55 AM 49.4°F9.7°C -47.8°F-44.3°C 1% Calm Calm -- 29.02 in982.7 mb 0.00 in0.0 mm 0.00 in0.0 mm 0.00 in0.0 mm
12:50 AM 49.6°F9.8°C -47.7°F-44.3°C 1% Calm Calm -- 29.02 in982.7 mb 0.00 in0.0 mm 0.00 in0.0 mm 0.00 in0.0 mm
12:45 AM 49.7°F9.8°C -47.6°F-44.2°C 1% Calm Calm -- 29.02 in982.7 mb 0.00 in0.0 mm 0.00 in0.0 mm 0.00 in0.0 mm
12:40 AM 49.8°F9.9°C -47.6°F-44.2°C 1% Calm Calm -- 29.02 in982.7 mb 0.00 in0.0 mm 0.00 in0.0 mm 0.00 in0.0 mm
12:35 AM 50.0°F10.0°C -47.5°F-44.2°C 1% Calm Calm -- 29.02 in982.7 mb 0.00 in0.0 mm 0.00 in0.0 mm 0.00 in0.0 mm
12:30 AM 50.0°F10.0°C -47.5°F-44.2°C 1% Calm Calm -- 29.02 in982.7 mb 0.00 in0.0 mm 0.00 in0.0 mm 0.00 in0.0 mm
12:25 AM 49.8°F9.9°C -47.6°F-44.2°C 1% Calm Calm -- 29.02 in982.7 mb 0.00 in0.0 mm 0.00 in0.0 mm 0.00 in0.0 mm
12:20 AM 49.8°F9.9°C -47.6°F-44.2°C 1% Calm Calm -- 29.02 in982.7 mb 0.00 in0.0 mm 0.00 in0.0 mm 0.00 in0.0 mm
12:15 AM 49.7°F9.8°C -47.6°F-44.2°C 1% Calm Calm -- 29.02 in982.7 mb 0.00 in0.0 mm 0.00 in0.0 mm 0.00 in0.0 mm
12:10 AM 49.6°F9.8°C -47.7°F-44.3°C 1% Calm Calm -- 29.02 in982.7 mb 0.00 in0.0 mm 0.00 in0.0 mm 0.00 in0.0 mm
12:05 AM 49.6°F9.8°C -47.7°F-44.3°C 1% Calm Calm -- 29.02 in982.7 mb 0.00 in0.0 mm 0.00 in0.0 mm 0.00 in0.0 mm
12:00 AM 49.6°F9.8°C -47.7°F-44.3°C 1% Calm Calm -- 29.02 in982.7 mb 0.00 in0.0 mm 0.00 in0.0 mm 0.00 in0.0 mm